Главная страница
METAR-TAF:

METAR-TAF

Аэропорты :

Griffiss_Air_Force_Base

Rome, Нью-Йорк, США

широта: 43-14N, долгота: 075-24W, высота над уровнем моря: 154 м

Текущие метеонаблюдения

Эта сводка был подготовлена 9 минут назад, в 21:53 UTC
Ветер 4 Узел от восточно-юго-восточный
Температура 31°C
Влажность 40%
Давление 1017 hPa
Видимость: 16.1 км
ясное небо

METAR: KRME 172153Z 12004KT 10SM CLR 31/16 A3003 RMK AO2 SLP164 T03060156 $

Время: 18:02 (22:02 UTC)

Прогноз

Эта сводка был подготовлена 4 часа и 27 минут назад, в 17:35 UTC
Прогноз действительный с 17-го 18 UTC до 18-го 18 UTC
Ветер 3 Узел переменных направлений
Видимость: 10 км
ясное небо
С 18-го 0300 UTC
Ветер 5 Узел от южный-юго-западный
Видимость: 10 км
ясное небо
С 18-го 1500 UTC
Ветер 15 Узел от западный-юго-западный с порывами до 25 Узел
Видимость: 10 км
Рассеянная облачность на высоте 5000 фута

TAF: KRME 171735Z 1718/1818 VRB03KT P6SM SKC FM180300 20005KT P6SM SKC FM181500 24015G25KT P6SM BKN050

Метеонаблюдения и прогнозы для более 4000 аэропортов (сводки METAR и TAF).

Имеющиеся станции представлены на карте желтыми и красными точками.

Чтобы увидеть название станции, наведите на нее мышь.

Затем щелкните, чтобы увидеть метеонаблюдения и метеопрогнозы.

Управление картой: чтобы увеличить масштаб, щелкните зеленые кнопки с черным крестиком; чтобы уменьшить масштаб, щелкните зеленую кнопку с тире; для просмотра соседних карт щелкайте зеленые стрелки.


METAR-TAF: